sensor_id;sensor_type;location;lat;lon;timestamp;temperature;humidity
8099;DHT22;4092;47.876;9.372;2023-07-22T00:02:18;13.50;99.90
8099;DHT22;4092;47.876;9.372;2023-07-22T00:04:46;13.40;99.90
8099;DHT22;4092;47.876;9.372;2023-07-22T00:07:13;13.40;99.90
8099;DHT22;4092;47.876;9.372;2023-07-22T00:09:40;13.40;99.90
8099;DHT22;4092;47.876;9.372;2023-07-22T00:12:10;13.30;99.90
8099;DHT22;4092;47.876;9.372;2023-07-22T00:14:40;13.30;99.90
8099;DHT22;4092;47.876;9.372;2023-07-22T00:17:08;13.20;99.90
8099;DHT22;4092;47.876;9.372;2023-07-22T00:19:35;13.20;99.90
8099;DHT22;4092;47.876;9.372;2023-07-22T00:22:02;13.20;99.90
8099;DHT22;4092;47.876;9.372;2023-07-22T00:24:29;13.10;99.90
8099;DHT22;4092;47.876;9.372;2023-07-22T00:26:57;13.10;99.90
8099;DHT22;4092;47.876;9.372;2023-07-22T00:29:25;13.10;99.90
8099;DHT22;4092;47.876;9.372;2023-07-22T00:31:52;13.10;99.90
8099;DHT22;4092;47.876;9.372;2023-07-22T00:34:19;13.00;99.90
8099;DHT22;4092;47.876;9.372;2023-07-22T00:36:46;13.00;99.90
8099;DHT22;4092;47.876;9.372;2023-07-22T00:39:13;13.00;99.90
8099;DHT22;4092;47.876;9.372;2023-07-22T00:41:40;13.00;99.90
8099;DHT22;4092;47.876;9.372;2023-07-22T00:44:09;13.00;99.90
8099;DHT22;4092;47.876;9.372;2023-07-22T00:46:38;12.90;99.90
8099;DHT22;4092;47.876;9.372;2023-07-22T00:49:05;12.90;99.90
8099;DHT22;4092;47.876;9.372;2023-07-22T00:51:33;12.90;99.90
8099;DHT22;4092;47.876;9.372;2023-07-22T00:54:00;12.90;99.90
8099;DHT22;4092;47.876;9.372;2023-07-22T00:56:29;12.80;99.90
8099;DHT22;4092;47.876;9.372;2023-07-22T00:58:59;12.80;99.90
8099;DHT22;4092;47.876;9.372;2023-07-22T01:01:26;12.70;99.90
8099;DHT22;4092;47.876;9.372;2023-07-22T01:03:54;12.70;99.90
8099;DHT22;4092;47.876;9.372;2023-07-22T01:06:22;12.60;99.90
8099;DHT22;4092;47.876;9.372;2023-07-22T01:08:50;12.60;99.90
8099;DHT22;4092;47.876;9.372;2023-07-22T01:11:17;12.60;99.90
8099;DHT22;4092;47.876;9.372;2023-07-22T01:13:44;12.60;99.90
8099;DHT22;4092;47.876;9.372;2023-07-22T01:16:11;12.60;99.90
8099;DHT22;4092;47.876;9.372;2023-07-22T01:18:39;12.50;99.90
8099;DHT22;4092;47.876;9.372;2023-07-22T01:21:08;12.50;99.90
8099;DHT22;4092;47.876;9.372;2023-07-22T01:23:38;12.50;99.90
8099;DHT22;4092;47.876;9.372;2023-07-22T01:26:05;12.50;99.90
8099;DHT22;4092;47.876;9.372;2023-07-22T01:28:35;12.50;99.90
8099;DHT22;4092;47.876;9.372;2023-07-22T01:31:02;12.50;99.90
8099;DHT22;4092;47.876;9.372;2023-07-22T01:33:30;12.50;99.90
8099;DHT22;4092;47.876;9.372;2023-07-22T01:35:59;12.50;99.90
8099;DHT22;4092;47.876;9.372;2023-07-22T01:38:26;12.50;99.90
8099;DHT22;4092;47.876;9.372;2023-07-22T01:40:54;12.50;99.90
8099;DHT22;4092;47.876;9.372;2023-07-22T01:43:21;12.40;99.90
8099;DHT22;4092;47.876;9.372;2023-07-22T01:45:48;12.40;99.90
8099;DHT22;4092;47.876;9.372;2023-07-22T01:48:15;12.30;99.90
8099;DHT22;4092;47.876;9.372;2023-07-22T01:50:42;12.20;99.90
8099;DHT22;4092;47.876;9.372;2023-07-22T01:53:08;12.20;99.90
8099;DHT22;4092;47.876;9.372;2023-07-22T01:55:35;12.10;99.90
8099;DHT22;4092;47.876;9.372;2023-07-22T01:58:04;12.10;99.90
8099;DHT22;4092;47.876;9.372;2023-07-22T02:00:31;12.00;99.90
8099;DHT22;4092;47.876;9.372;2023-07-22T02:02:57;12.00;99.90
8099;DHT22;4092;47.876;9.372;2023-07-22T02:05:24;12.00;99.90
8099;DHT22;4092;47.876;9.372;2023-07-22T02:07:53;12.00;99.90
8099;DHT22;4092;47.876;9.372;2023-07-22T02:10:20;11.90;99.90
8099;DHT22;4092;47.876;9.372;2023-07-22T02:12:47;12.00;99.90
8099;DHT22;4092;47.876;9.372;2023-07-22T02:15:16;11.90;99.90
8099;DHT22;4092;47.876;9.372;2023-07-22T02:17:43;11.90;99.90
8099;DHT22;4092;47.876;9.372;2023-07-22T02:20:10;11.90;99.90
8099;DHT22;4092;47.876;9.372;2023-07-22T02:22:38;11.90;99.90
8099;DHT22;4092;47.876;9.372;2023-07-22T02:25:06;11.80;99.90
8099;DHT22;4092;47.876;9.372;2023-07-22T02:27:36;11.80;99.90
8099;DHT22;4092;47.876;9.372;2023-07-22T02:30:05;11.80;99.90
8099;DHT22;4092;47.876;9.372;2023-07-22T02:32:37;11.80;99.90
8099;DHT22;4092;47.876;9.372;2023-07-22T02:35:05;11.70;99.90
8099;DHT22;4092;47.876;9.372;2023-07-22T02:37:32;11.70;99.90
8099;DHT22;4092;47.876;9.372;2023-07-22T02:40:00;11.70;99.90
8099;DHT22;4092;47.876;9.372;2023-07-22T02:42:33;11.60;99.90
8099;DHT22;4092;47.876;9.372;2023-07-22T02:45:00;11.60;99.90
8099;DHT22;4092;47.876;9.372;2023-07-22T02:47:27;11.60;99.90
8099;DHT22;4092;47.876;9.372;2023-07-22T02:49:55;11.60;99.90
8099;DHT22;4092;47.876;9.372;2023-07-22T02:52:22;11.70;99.90
8099;DHT22;4092;47.876;9.372;2023-07-22T02:55:05;11.70;99.90
8099;DHT22;4092;47.876;9.372;2023-07-22T02:57:33;11.70;99.90
8099;DHT22;4092;47.876;9.372;2023-07-22T03:00:01;11.60;99.90
8099;DHT22;4092;47.876;9.372;2023-07-22T03:02:32;11.70;99.90
8099;DHT22;4092;47.876;9.372;2023-07-22T03:05:00;11.60;99.90
8099;DHT22;4092;47.876;9.372;2023-07-22T03:07:30;11.60;99.90
8099;DHT22;4092;47.876;9.372;2023-07-22T03:09:57;11.60;99.90
8099;DHT22;4092;47.876;9.372;2023-07-22T03:12:24;11.50;99.90
8099;DHT22;4092;47.876;9.372;2023-07-22T03:14:51;11.50;99.90
8099;DHT22;4092;47.876;9.372;2023-07-22T03:17:18;11.60;99.90
8099;DHT22;4092;47.876;9.372;2023-07-22T03:19:45;11.60;99.90
8099;DHT22;4092;47.876;9.372;2023-07-22T03:22:15;11.60;99.90
8099;DHT22;4092;47.876;9.372;2023-07-22T03:24:42;11.60;99.90
8099;DHT22;4092;47.876;9.372;2023-07-22T03:27:10;11.60;99.90
8099;DHT22;4092;47.876;9.372;2023-07-22T03:29:37;11.50;99.90
8099;DHT22;4092;47.876;9.372;2023-07-22T03:32:07;11.50;99.90
8099;DHT22;4092;47.876;9.372;2023-07-22T03:34:34;11.50;99.90
8099;DHT22;4092;47.876;9.372;2023-07-22T03:37:01;11.50;99.90
8099;DHT22;4092;47.876;9.372;2023-07-22T03:39:30;11.50;99.90
8099;DHT22;4092;47.876;9.372;2023-07-22T03:41:57;11.50;99.90
8099;DHT22;4092;47.876;9.372;2023-07-22T03:44:24;11.50;99.90
8099;DHT22;4092;47.876;9.372;2023-07-22T03:46:51;11.50;99.90
8099;DHT22;4092;47.876;9.372;2023-07-22T03:49:19;11.50;99.90
8099;DHT22;4092;47.876;9.372;2023-07-22T03:51:46;11.50;99.90
8099;DHT22;4092;47.876;9.372;2023-07-22T03:54:13;11.50;99.90
8099;DHT22;4092;47.876;9.372;2023-07-22T03:56:41;11.50;99.90
8099;DHT22;4092;47.876;9.372;2023-07-22T03:59:08;11.50;99.90
8099;DHT22;4092;47.876;9.372;2023-07-22T04:01:35;11.50;99.90
8099;DHT22;4092;47.876;9.372;2023-07-22T04:04:02;11.50;99.90
8099;DHT22;4092;47.876;9.372;2023-07-22T04:06:29;11.50;99.90
8099;DHT22;4092;47.876;9.372;2023-07-22T04:08:56;11.50;99.90
8099;DHT22;4092;47.876;9.372;2023-07-22T04:11:23;11.50;99.90
8099;DHT22;4092;47.876;9.372;2023-07-22T04:13:51;11.50;99.90
8099;DHT22;4092;47.876;9.372;2023-07-22T04:16:18;11.50;99.90
8099;DHT22;4092;47.876;9.372;2023-07-22T04:18:45;11.50;99.90
8099;DHT22;4092;47.876;9.372;2023-07-22T04:21:11;11.50;99.90
8099;DHT22;4092;47.876;9.372;2023-07-22T04:23:38;11.60;99.90
8099;DHT22;4092;47.876;9.372;2023-07-22T04:26:05;11.60;99.90
8099;DHT22;4092;47.876;9.372;2023-07-22T04:28:33;11.60;99.90
8099;DHT22;4092;47.876;9.372;2023-07-22T04:31:02;11.70;99.90
8099;DHT22;4092;47.876;9.372;2023-07-22T04:33:29;11.70;99.90
8099;DHT22;4092;47.876;9.372;2023-07-22T04:35:58;11.70;99.90
8099;DHT22;4092;47.876;9.372;2023-07-22T04:38:25;11.70;99.90
8099;DHT22;4092;47.876;9.372;2023-07-22T04:40:53;11.80;99.90
8099;DHT22;4092;47.876;9.372;2023-07-22T04:43:19;11.80;99.90
8099;DHT22;4092;47.876;9.372;2023-07-22T04:45:47;11.80;99.90
8099;DHT22;4092;47.876;9.372;2023-07-22T04:48:18;11.90;99.90
8099;DHT22;4092;47.876;9.372;2023-07-22T04:50:45;11.90;99.90
8099;DHT22;4092;47.876;9.372;2023-07-22T04:53:12;12.00;99.90
8099;DHT22;4092;47.876;9.372;2023-07-22T04:55:39;12.10;99.90
8099;DHT22;4092;47.876;9.372;2023-07-22T04:58:07;12.30;99.90
8099;DHT22;4092;47.876;9.372;2023-07-22T05:00:35;12.30;99.90
8099;DHT22;4092;47.876;9.372;2023-07-22T05:03:02;12.40;99.90
8099;DHT22;4092;47.876;9.372;2023-07-22T05:05:32;12.40;99.90
8099;DHT22;4092;47.876;9.372;2023-07-22T05:07:58;12.40;99.90
8099;DHT22;4092;47.876;9.372;2023-07-22T05:10:25;12.40;99.90
8099;DHT22;4092;47.876;9.372;2023-07-22T05:12:54;12.50;99.90
8099;DHT22;4092;47.876;9.372;2023-07-22T05:15:22;12.50;99.90
8099;DHT22;4092;47.876;9.372;2023-07-22T05:17:49;12.50;99.90
8099;DHT22;4092;47.876;9.372;2023-07-22T05:20:16;12.50;99.90
8099;DHT22;4092;47.876;9.372;2023-07-22T05:22:44;12.60;99.90
8099;DHT22;4092;47.876;9.372;2023-07-22T05:25:11;12.60;99.90
8099;DHT22;4092;47.876;9.372;2023-07-22T05:27:39;12.60;99.90
8099;DHT22;4092;47.876;9.372;2023-07-22T05:30:07;12.80;99.90
8099;DHT22;4092;47.876;9.372;2023-07-22T05:32:34;12.90;99.90
8099;DHT22;4092;47.876;9.372;2023-07-22T05:35:01;13.00;99.90
8099;DHT22;4092;47.876;9.372;2023-07-22T05:37:30;13.10;99.90
8099;DHT22;4092;47.876;9.372;2023-07-22T05:39:59;13.20;99.90
8099;DHT22;4092;47.876;9.372;2023-07-22T05:42:26;13.30;99.90
8099;DHT22;4092;47.876;9.372;2023-07-22T05:44:54;13.40;99.90
8099;DHT22;4092;47.876;9.372;2023-07-22T05:47:22;13.40;99.90
8099;DHT22;4092;47.876;9.372;2023-07-22T05:49:49;13.50;99.90
8099;DHT22;4092;47.876;9.372;2023-07-22T05:52:16;13.60;99.90
8099;DHT22;4092;47.876;9.372;2023-07-22T05:54:43;13.60;99.90
8099;DHT22;4092;47.876;9.372;2023-07-22T05:57:11;13.70;99.90
8099;DHT22;4092;47.876;9.372;2023-07-22T05:59:38;13.80;99.90
8099;DHT22;4092;47.876;9.372;2023-07-22T06:02:07;13.90;99.90
8099;DHT22;4092;47.876;9.372;2023-07-22T06:04:34;14.00;99.90
8099;DHT22;4092;47.876;9.372;2023-07-22T06:07:01;14.10;99.90
8099;DHT22;4092;47.876;9.372;2023-07-22T06:09:28;14.20;99.90
8099;DHT22;4092;47.876;9.372;2023-07-22T06:11:55;14.40;99.90
8099;DHT22;4092;47.876;9.372;2023-07-22T06:14:23;14.50;99.90
8099;DHT22;4092;47.876;9.372;2023-07-22T06:16:50;14.60;99.90
8099;DHT22;4092;47.876;9.372;2023-07-22T06:19:17;14.80;99.90
8099;DHT22;4092;47.876;9.372;2023-07-22T06:21:44;14.90;99.90
8099;DHT22;4092;47.876;9.372;2023-07-22T06:24:11;15.00;99.90
8099;DHT22;4092;47.876;9.372;2023-07-22T06:26:38;15.10;99.90
8099;DHT22;4092;47.876;9.372;2023-07-22T06:29:05;15.20;99.90
8099;DHT22;4092;47.876;9.372;2023-07-22T06:31:33;15.30;99.90
8099;DHT22;4092;47.876;9.372;2023-07-22T06:34:00;15.40;99.90
8099;DHT22;4092;47.876;9.372;2023-07-22T06:36:28;15.50;99.90
8099;DHT22;4092;47.876;9.372;2023-07-22T06:38:56;15.60;99.90
8099;DHT22;4092;47.876;9.372;2023-07-22T06:41:23;15.60;99.90
8099;DHT22;4092;47.876;9.372;2023-07-22T06:43:50;15.60;99.90
8099;DHT22;4092;47.876;9.372;2023-07-22T06:46:17;15.70;99.90
8099;DHT22;4092;47.876;9.372;2023-07-22T06:48:46;15.80;99.90
8099;DHT22;4092;47.876;9.372;2023-07-22T06:51:13;15.90;99.90
8099;DHT22;4092;47.876;9.372;2023-07-22T06:53:43;16.00;99.90
8099;DHT22;4092;47.876;9.372;2023-07-22T06:56:09;16.20;99.90
8099;DHT22;4092;47.876;9.372;2023-07-22T06:58:36;16.30;99.90
8099;DHT22;4092;47.876;9.372;2023-07-22T07:01:03;16.40;99.90
8099;DHT22;4092;47.876;9.372;2023-07-22T07:03:30;16.60;99.90
8099;DHT22;4092;47.876;9.372;2023-07-22T07:05:59;16.60;99.90
8099;DHT22;4092;47.876;9.372;2023-07-22T07:08:27;16.60;99.90
8099;DHT22;4092;47.876;9.372;2023-07-22T07:10:54;16.50;99.90
8099;DHT22;4092;47.876;9.372;2023-07-22T07:13:21;16.60;99.90
8099;DHT22;4092;47.876;9.372;2023-07-22T07:15:48;16.60;99.90
8099;DHT22;4092;47.876;9.372;2023-07-22T07:18:15;16.60;99.90
8099;DHT22;4092;47.876;9.372;2023-07-22T07:20:43;16.60;99.90
8099;DHT22;4092;47.876;9.372;2023-07-22T07:23:13;16.70;99.90
8099;DHT22;4092;47.876;9.372;2023-07-22T07:25:41;16.70;99.90
8099;DHT22;4092;47.876;9.372;2023-07-22T07:28:08;16.70;99.90
8099;DHT22;4092;47.876;9.372;2023-07-22T07:30:37;16.70;99.90
8099;DHT22;4092;47.876;9.372;2023-07-22T07:33:04;16.70;99.90
8099;DHT22;4092;47.876;9.372;2023-07-22T07:35:31;16.80;99.90
8099;DHT22;4092;47.876;9.372;2023-07-22T07:37:58;16.90;99.90
8099;DHT22;4092;47.876;9.372;2023-07-22T07:40:26;17.00;99.90
8099;DHT22;4092;47.876;9.372;2023-07-22T07:42:53;17.10;99.90
8099;DHT22;4092;47.876;9.372;2023-07-22T07:45:21;17.20;99.90
8099;DHT22;4092;47.876;9.372;2023-07-22T07:47:48;17.30;99.90
8099;DHT22;4092;47.876;9.372;2023-07-22T07:50:15;17.40;99.90
8099;DHT22;4092;47.876;9.372;2023-07-22T07:52:42;17.50;99.90
8099;DHT22;4092;47.876;9.372;2023-07-22T07:55:09;17.60;99.90
8099;DHT22;4092;47.876;9.372;2023-07-22T07:57:37;17.60;99.90
8099;DHT22;4092;47.876;9.372;2023-07-22T08:00:05;17.70;99.90
8099;DHT22;4092;47.876;9.372;2023-07-22T08:02:34;17.70;99.90
8099;DHT22;4092;47.876;9.372;2023-07-22T08:05:01;17.70;99.90
8099;DHT22;4092;47.876;9.372;2023-07-22T08:07:29;17.70;99.90
8099;DHT22;4092;47.876;9.372;2023-07-22T08:09:56;17.80;99.90
8099;DHT22;4092;47.876;9.372;2023-07-22T08:12:23;17.80;99.90
8099;DHT22;4092;47.876;9.372;2023-07-22T08:14:53;18.00;99.90
8099;DHT22;4092;47.876;9.372;2023-07-22T08:17:20;18.10;99.90
8099;DHT22;4092;47.876;9.372;2023-07-22T08:19:47;18.20;99.90
8099;DHT22;4092;47.876;9.372;2023-07-22T08:22:14;18.20;99.90
8099;DHT22;4092;47.876;9.372;2023-07-22T08:24:41;18.20;99.90
8099;DHT22;4092;47.876;9.372;2023-07-22T08:27:08;18.30;99.90
8099;DHT22;4092;47.876;9.372;2023-07-22T08:29:36;18.30;99.90
8099;DHT22;4092;47.876;9.372;2023-07-22T08:32:05;18.30;99.90
8099;DHT22;4092;47.876;9.372;2023-07-22T08:34:32;18.40;99.90
8099;DHT22;4092;47.876;9.372;2023-07-22T08:36:59;18.50;99.90
8099;DHT22;4092;47.876;9.372;2023-07-22T08:39:26;18.40;99.90
8099;DHT22;4092;47.876;9.372;2023-07-22T08:41:54;18.50;99.90
8099;DHT22;4092;47.876;9.372;2023-07-22T08:44:25;18.60;99.90
8099;DHT22;4092;47.876;9.372;2023-07-22T08:46:58;18.50;99.90
8099;DHT22;4092;47.876;9.372;2023-07-22T08:49:27;18.40;99.90
8099;DHT22;4092;47.876;9.372;2023-07-22T08:51:55;18.40;99.90
8099;DHT22;4092;47.876;9.372;2023-07-22T08:54:23;18.60;99.90
8099;DHT22;4092;47.876;9.372;2023-07-22T08:56:51;18.70;99.90
8099;DHT22;4092;47.876;9.372;2023-07-22T08:59:18;18.90;99.90
8099;DHT22;4092;47.876;9.372;2023-07-22T09:01:46;19.10;99.90
8099;DHT22;4092;47.876;9.372;2023-07-22T09:04:14;19.20;99.90
8099;DHT22;4092;47.876;9.372;2023-07-22T09:06:43;19.40;99.90
8099;DHT22;4092;47.876;9.372;2023-07-22T09:09:11;19.40;99.90
8099;DHT22;4092;47.876;9.372;2023-07-22T09:11:38;19.50;99.90
8099;DHT22;4092;47.876;9.372;2023-07-22T09:14:05;19.50;99.90
8099;DHT22;4092;47.876;9.372;2023-07-22T09:16:33;19.50;99.90
8099;DHT22;4092;47.876;9.372;2023-07-22T09:19:02;19.50;99.90
8099;DHT22;4092;47.876;9.372;2023-07-22T09:21:29;19.50;99.90
8099;DHT22;4092;47.876;9.372;2023-07-22T09:23:58;19.40;99.90
8099;DHT22;4092;47.876;9.372;2023-07-22T09:26:24;19.30;99.90
8099;DHT22;4092;47.876;9.372;2023-07-22T09:28:53;19.20;99.90
8099;DHT22;4092;47.876;9.372;2023-07-22T09:31:21;19.30;99.90
8099;DHT22;4092;47.876;9.372;2023-07-22T09:33:48;19.50;99.90
8099;DHT22;4092;47.876;9.372;2023-07-22T09:36:16;19.80;99.90
8099;DHT22;4092;47.876;9.372;2023-07-22T09:38:43;20.00;99.90
8099;DHT22;4092;47.876;9.372;2023-07-22T09:41:11;20.10;99.90
8099;DHT22;4092;47.876;9.372;2023-07-22T09:43:39;20.10;99.90
8099;DHT22;4092;47.876;9.372;2023-07-22T09:46:08;20.20;99.90
8099;DHT22;4092;47.876;9.372;2023-07-22T09:48:42;20.30;99.90
8099;DHT22;4092;47.876;9.372;2023-07-22T09:51:14;20.40;99.90
8099;DHT22;4092;47.876;9.372;2023-07-22T09:53:45;20.60;99.90
8099;DHT22;4092;47.876;9.372;2023-07-22T09:56:14;20.70;99.90
8099;DHT22;4092;47.876;9.372;2023-07-22T09:58:42;20.70;99.90
8099;DHT22;4092;47.876;9.372;2023-07-22T10:01:12;20.80;99.90
8099;DHT22;4092;47.876;9.372;2023-07-22T10:03:43;20.80;99.90
8099;DHT22;4092;47.876;9.372;2023-07-22T10:06:11;20.60;99.90
8099;DHT22;4092;47.876;9.372;2023-07-22T10:08:40;20.40;99.90
8099;DHT22;4092;47.876;9.372;2023-07-22T10:11:09;20.50;99.90
8099;DHT22;4092;47.876;9.372;2023-07-22T10:13:39;20.60;99.90
8099;DHT22;4092;47.876;9.372;2023-07-22T10:16:06;20.60;99.90
8099;DHT22;4092;47.876;9.372;2023-07-22T10:18:34;20.70;99.90
8099;DHT22;4092;47.876;9.372;2023-07-22T10:21:03;20.70;99.90
8099;DHT22;4092;47.876;9.372;2023-07-22T10:23:31;20.80;99.90
8099;DHT22;4092;47.876;9.372;2023-07-22T10:25:59;20.90;99.90
8099;DHT22;4092;47.876;9.372;2023-07-22T10:28:26;20.90;99.90
8099;DHT22;4092;47.876;9.372;2023-07-22T10:30:56;21.10;99.90
8099;DHT22;4092;47.876;9.372;2023-07-22T10:33:24;21.20;99.90
8099;DHT22;4092;47.876;9.372;2023-07-22T10:36:05;21.30;99.90
8099;DHT22;4092;47.876;9.372;2023-07-22T10:38:34;21.40;99.90
8099;DHT22;4092;47.876;9.372;2023-07-22T10:41:11;21.30;99.90
8099;DHT22;4092;47.876;9.372;2023-07-22T10:43:39;21.20;99.90
8099;DHT22;4092;47.876;9.372;2023-07-22T10:46:10;21.00;99.90
8099;DHT22;4092;47.876;9.372;2023-07-22T10:48:39;21.00;99.90
8099;DHT22;4092;47.876;9.372;2023-07-22T10:51:09;21.20;99.90
8099;DHT22;4092;47.876;9.372;2023-07-22T10:53:40;21.30;99.90
8099;DHT22;4092;47.876;9.372;2023-07-22T10:56:14;21.40;99.90
8099;DHT22;4092;47.876;9.372;2023-07-22T10:59:00;21.50;99.90
8099;DHT22;4092;47.876;9.372;2023-07-22T11:01:35;21.40;99.90
8099;DHT22;4092;47.876;9.372;2023-07-22T11:04:11;21.30;99.90
8099;DHT22;4092;47.876;9.372;2023-07-22T11:06:39;21.50;99.90
8099;DHT22;4092;47.876;9.372;2023-07-22T11:09:07;21.70;99.90
8099;DHT22;4092;47.876;9.372;2023-07-22T11:11:54;21.90;99.90
8099;DHT22;4092;47.876;9.372;2023-07-22T11:14:23;21.80;99.90
8099;DHT22;4092;47.876;9.372;2023-07-22T11:16:52;21.80;99.90
8099;DHT22;4092;47.876;9.372;2023-07-22T11:19:20;21.90;99.90
8099;DHT22;4092;47.876;9.372;2023-07-22T11:21:48;22.00;99.90
8099;DHT22;4092;47.876;9.372;2023-07-22T11:24:15;22.00;99.90
8099;DHT22;4092;47.876;9.372;2023-07-22T11:26:43;21.90;99.90
8099;DHT22;4092;47.876;9.372;2023-07-22T11:29:11;22.20;99.90
8099;DHT22;4092;47.876;9.372;2023-07-22T11:31:40;22.30;99.90
8099;DHT22;4092;47.876;9.372;2023-07-22T11:34:12;22.30;99.90
8099;DHT22;4092;47.876;9.372;2023-07-22T11:36:39;22.20;99.90
8099;DHT22;4092;47.876;9.372;2023-07-22T11:39:08;22.10;99.90
8099;DHT22;4092;47.876;9.372;2023-07-22T11:41:37;22.20;99.90
8099;DHT22;4092;47.876;9.372;2023-07-22T11:44:05;22.40;99.90
8099;DHT22;4092;47.876;9.372;2023-07-22T11:46:35;22.00;99.90
8099;DHT22;4092;47.876;9.372;2023-07-22T11:49:02;21.80;99.90
8099;DHT22;4092;47.876;9.372;2023-07-22T11:51:31;22.00;99.90
8099;DHT22;4092;47.876;9.372;2023-07-22T11:53:59;22.10;99.90
8099;DHT22;4092;47.876;9.372;2023-07-22T11:56:27;22.00;99.90
8099;DHT22;4092;47.876;9.372;2023-07-22T11:58:56;22.00;99.90
8099;DHT22;4092;47.876;9.372;2023-07-22T12:01:23;22.30;99.90
8099;DHT22;4092;47.876;9.372;2023-07-22T12:03:55;22.50;99.90
8099;DHT22;4092;47.876;9.372;2023-07-22T12:06:25;22.80;99.90
8099;DHT22;4092;47.876;9.372;2023-07-22T12:08:53;23.20;99.90
8099;DHT22;4092;47.876;9.372;2023-07-22T12:11:22;23.00;99.90
8099;DHT22;4092;47.876;9.372;2023-07-22T12:14:04;22.90;99.90
8099;DHT22;4092;47.876;9.372;2023-07-22T12:16:31;22.90;99.90
8099;DHT22;4092;47.876;9.372;2023-07-22T12:19:01;23.30;99.90
8099;DHT22;4092;47.876;9.372;2023-07-22T12:21:28;23.60;99.90
8099;DHT22;4092;47.876;9.372;2023-07-22T12:23:57;24.00;99.90
8099;DHT22;4092;47.876;9.372;2023-07-22T12:26:24;24.30;99.90
8099;DHT22;4092;47.876;9.372;2023-07-22T12:28:51;24.30;99.90
8099;DHT22;4092;47.876;9.372;2023-07-22T12:31:18;24.30;99.90
8099;DHT22;4092;47.876;9.372;2023-07-22T12:33:45;24.20;99.90
8099;DHT22;4092;47.876;9.372;2023-07-22T12:36:12;23.90;99.90
8099;DHT22;4092;47.876;9.372;2023-07-22T12:38:39;23.90;99.90
8099;DHT22;4092;47.876;9.372;2023-07-22T12:41:07;24.10;99.90
8099;DHT22;4092;47.876;9.372;2023-07-22T12:43:34;24.30;99.90
8099;DHT22;4092;47.876;9.372;2023-07-22T12:46:01;24.50;99.90
8099;DHT22;4092;47.876;9.372;2023-07-22T12:48:28;24.80;99.90
8099;DHT22;4092;47.876;9.372;2023-07-22T12:50:55;24.70;99.90
8099;DHT22;4092;47.876;9.372;2023-07-22T12:53:22;24.80;99.90
8099;DHT22;4092;47.876;9.372;2023-07-22T12:55:49;24.80;99.90
8099;DHT22;4092;47.876;9.372;2023-07-22T12:58:18;25.10;99.90
8099;DHT22;4092;47.876;9.372;2023-07-22T13:00:45;25.00;99.90
8099;DHT22;4092;47.876;9.372;2023-07-22T13:03:11;25.10;99.90
8099;DHT22;4092;47.876;9.372;2023-07-22T13:05:39;25.30;99.90
8099;DHT22;4092;47.876;9.372;2023-07-22T13:08:06;25.20;98.50
8099;DHT22;4092;47.876;9.372;2023-07-22T13:10:36;25.00;99.60
8099;DHT22;4092;47.876;9.372;2023-07-22T13:13:05;24.90;99.40
8099;DHT22;4092;47.876;9.372;2023-07-22T13:15:33;25.00;99.60
8099;DHT22;4092;47.876;9.372;2023-07-22T13:18:00;25.10;99.90
8099;DHT22;4092;47.876;9.372;2023-07-22T13:20:28;25.30;99.90
8099;DHT22;4092;47.876;9.372;2023-07-22T13:22:55;25.50;98.10
8099;DHT22;4092;47.876;9.372;2023-07-22T13:25:23;25.50;96.80
8099;DHT22;4092;47.876;9.372;2023-07-22T13:27:50;25.30;97.00
8099;DHT22;4092;47.876;9.372;2023-07-22T13:30:17;25.30;96.70
8099;DHT22;4092;47.876;9.372;2023-07-22T13:32:45;25.30;99.30
8099;DHT22;4092;47.876;9.372;2023-07-22T13:35:12;25.60;98.00
8099;DHT22;4092;47.876;9.372;2023-07-22T13:37:39;25.80;97.80
8099;DHT22;4092;47.876;9.372;2023-07-22T13:40:07;25.80;96.10
8099;DHT22;4092;47.876;9.372;2023-07-22T13:42:37;26.00;97.70
8099;DHT22;4092;47.876;9.372;2023-07-22T13:45:05;26.30;97.30
8099;DHT22;4092;47.876;9.372;2023-07-22T13:47:32;26.30;96.70
8099;DHT22;4092;47.876;9.372;2023-07-22T13:50:00;26.40;94.90
8099;DHT22;4092;47.876;9.372;2023-07-22T13:52:27;26.40;94.70
8099;DHT22;4092;47.876;9.372;2023-07-22T13:54:54;26.10;94.20
8099;DHT22;4092;47.876;9.372;2023-07-22T13:57:21;26.00;95.10
8099;DHT22;4092;47.876;9.372;2023-07-22T13:59:48;26.10;94.80
8099;DHT22;4092;47.876;9.372;2023-07-22T14:02:15;25.90;93.90
8099;DHT22;4092;47.876;9.372;2023-07-22T14:04:42;25.50;93.60
8099;DHT22;4092;47.876;9.372;2023-07-22T14:07:10;25.60;94.10
8099;DHT22;4092;47.876;9.372;2023-07-22T14:09:37;25.50;93.90
8099;DHT22;4092;47.876;9.372;2023-07-22T14:12:05;25.70;93.30
8099;DHT22;4092;47.876;9.372;2023-07-22T14:14:32;25.90;94.30
8099;DHT22;4092;47.876;9.372;2023-07-22T14:16:59;26.40;94.90
8099;DHT22;4092;47.876;9.372;2023-07-22T14:19:26;26.50;93.00
8099;DHT22;4092;47.876;9.372;2023-07-22T14:21:53;26.50;92.20
8099;DHT22;4092;47.876;9.372;2023-07-22T14:24:22;26.50;92.70
8099;DHT22;4092;47.876;9.372;2023-07-22T14:26:48;26.80;92.40
8099;DHT22;4092;47.876;9.372;2023-07-22T14:29:16;26.90;92.90
8099;DHT22;4092;47.876;9.372;2023-07-22T14:31:43;27.20;93.40
8099;DHT22;4092;47.876;9.372;2023-07-22T14:34:10;27.30;91.90
8099;DHT22;4092;47.876;9.372;2023-07-22T14:36:37;27.60;92.90
8099;DHT22;4092;47.876;9.372;2023-07-22T14:39:04;27.80;90.90
8099;DHT22;4092;47.876;9.372;2023-07-22T14:41:33;27.40;87.30
8099;DHT22;4092;47.876;9.372;2023-07-22T14:44:00;27.20;89.20
8099;DHT22;4092;47.876;9.372;2023-07-22T14:46:27;26.40;88.60
8099;DHT22;4092;47.876;9.372;2023-07-22T14:48:54;26.20;91.70
8099;DHT22;4092;47.876;9.372;2023-07-22T14:51:21;26.60;90.70
8099;DHT22;4092;47.876;9.372;2023-07-22T14:53:48;27.00;90.90
8099;DHT22;4092;47.876;9.372;2023-07-22T14:56:15;27.00;90.10
8099;DHT22;4092;47.876;9.372;2023-07-22T14:58:44;26.50;89.00
8099;DHT22;4092;47.876;9.372;2023-07-22T15:01:10;26.40;90.40
8099;DHT22;4092;47.876;9.372;2023-07-22T15:03:38;26.50;90.40
8099;DHT22;4092;47.876;9.372;2023-07-22T15:06:05;26.70;88.40
8099;DHT22;4092;47.876;9.372;2023-07-22T15:08:32;26.80;88.40
8099;DHT22;4092;47.876;9.372;2023-07-22T15:10:59;26.80;90.60
8099;DHT22;4092;47.876;9.372;2023-07-22T15:13:26;27.10;88.60
8099;DHT22;4092;47.876;9.372;2023-07-22T15:15:55;27.40;90.20
8099;DHT22;4092;47.876;9.372;2023-07-22T15:18:22;26.90;88.90
8099;DHT22;4092;47.876;9.372;2023-07-22T15:20:50;26.30;87.00
8099;DHT22;4092;47.876;9.372;2023-07-22T15:23:17;25.80;87.80
8099;DHT22;4092;47.876;9.372;2023-07-22T15:25:44;25.10;88.80
8099;DHT22;4092;47.876;9.372;2023-07-22T15:28:11;25.00;90.50
8099;DHT22;4092;47.876;9.372;2023-07-22T15:30:38;24.70;88.00
8099;DHT22;4092;47.876;9.372;2023-07-22T15:33:07;25.00;90.60
8099;DHT22;4092;47.876;9.372;2023-07-22T15:35:33;25.60;91.70
8099;DHT22;4092;47.876;9.372;2023-07-22T15:38:00;26.10;90.20
8099;DHT22;4092;47.876;9.372;2023-07-22T15:40:28;26.20;88.30
8099;DHT22;4092;47.876;9.372;2023-07-22T15:42:55;26.50;89.40
8099;DHT22;4092;47.876;9.372;2023-07-22T15:45:22;26.70;87.50
8099;DHT22;4092;47.876;9.372;2023-07-22T15:47:49;26.90;89.50
8099;DHT22;4092;47.876;9.372;2023-07-22T15:50:17;26.90;87.30
8099;DHT22;4092;47.876;9.372;2023-07-22T15:52:44;26.90;88.70
8099;DHT22;4092;47.876;9.372;2023-07-22T15:55:12;26.80;87.10
8099;DHT22;4092;47.876;9.372;2023-07-22T15:57:39;26.90;89.40
8099;DHT22;4092;47.876;9.372;2023-07-22T16:00:08;27.30;90.30
8099;DHT22;4092;47.876;9.372;2023-07-22T16:02:38;27.50;88.60
8099;DHT22;4092;47.876;9.372;2023-07-22T16:05:06;27.60;85.30
8099;DHT22;4092;47.876;9.372;2023-07-22T16:07:36;27.40;85.70